Time;durP1;ratioP1;P1;durP2;ratioP2;P2;SDS_P1;SDS_P2;PMS_P1;PMS_P2;Temp;Humidity;BMP_temperature;BMP_pressure;BME280_temperature;BME280_humidity;BME280_pressure;Samples;Min_cycle;Max_cycle;Signal;HPM_P1;HPM_P2
2021/04/12 00:00:13;;;;;;;11.25;10.07;;;;;;;;;;5031709;28;20378;-88
2021/04/12 00:02:58;;;;;;;11.57;10.48;;;;;;;;;;5033252;28;20400;-88
2021/04/12 00:05:38;;;;;;;11.02;10.00;;;;;;;;;;5036941;28;20366;-88
2021/04/12 00:08:13;;;;;;;10.55;9.55;;;;;;;;;;5030959;28;20373;-87
2021/04/12 00:10:39;;;;;;;10.55;9.55;;;;;;;;;;5030822;28;20385;-89
2021/04/12 00:13:07;;;;;;;10.60;9.60;;;;;;;;;;5031129;28;20394;-89
2021/04/12 00:15:42;;;;;;;10.23;9.23;;;;;;;;;;5031015;28;20489;-89
2021/04/12 00:18:32;;;;;;;10.68;9.77;;;;;;;;;;5031365;28;20368;-90
2021/04/12 00:21:00;;;;;;;10.20;9.30;;;;;;;;;;5029037;28;20378;-89
2021/04/12 00:23:39;;;;;;;10.85;9.40;;;;;;;;;;5031000;28;20373;-89
2021/04/12 00:26:14;;;;;;;10.27;9.27;;;;;;;;;;5030975;28;20480;-89
2021/04/12 00:28:45;;;;;;;9.65;8.75;;;;;;;;;;5032330;28;20898;-88
2021/04/12 00:31:20;;;;;;;10.05;9.15;;;;;;;;;;5032534;28;20731;-89
2021/04/12 00:33:49;;;;;;;10.10;9.10;;;;;;;;;;5031386;28;20894;-91
2021/04/12 00:36:22;;;;;;;9.32;8.43;;;;;;;;;;5031219;28;20428;-89
2021/04/12 00:39:01;;;;;;;9.82;8.75;;;;;;;;;;5030429;28;20452;-89
2021/04/12 00:41:47;;;;;;;10.05;8.98;;;;;;;;;;5030882;28;20882;-89
2021/04/12 00:44:21;;;;;;;10.15;9.15;;;;;;;;;;5031054;28;20377;-88
2021/04/12 00:47:09;;;;;;;10.15;9.10;;;;;;;;;;5032890;28;20883;-88
2021/04/12 00:49:38;;;;;;;10.40;9.40;;;;;;;;;;5032955;28;20421;-88
2021/04/12 00:52:10;;;;;;;11.03;9.87;;;;;;;;;;5034071;28;20397;-88
2021/04/12 00:55:05;;;;;;;11.88;9.85;;;;;;;;;;5034974;28;20361;-88
2021/04/12 00:57:31;;;;;;;11.30;10.20;;;;;;;;;;5030893;28;20736;-89
2021/04/12 01:00:17;;;;;;;10.93;9.68;;;;;;;;;;5030145;28;20381;-88
2021/04/12 01:02:50;;;;;;;11.90;10.70;;;;;;;;;;5030149;28;20720;-88
2021/04/12 01:05:52;;;;;;;12.93;11.27;;;;;;;;;;5030236;28;20370;-88
2021/04/12 01:08:37;;;;;;;13.18;11.50;;;;;;;;;;5028980;28;20389;-88
2021/04/12 01:11:21;;;;;;;12.90;11.60;;;;;;;;;;5028373;28;20827;-89
2021/04/12 01:13:53;;;;;;;13.37;12.03;;;;;;;;;;5031043;28;20385;-88
2021/04/12 01:16:24;;;;;;;11.40;10.03;;;;;;;;;;5030189;28;20388;-89
2021/04/12 01:18:56;;;;;;;10.52;9.63;;;;;;;;;;5029739;28;20461;-89
2021/04/12 01:21:31;;;;;;;10.32;9.27;;;;;;;;;;5030899;28;20772;-89
2021/04/12 01:24:16;;;;;;;9.70;8.57;;;;;;;;;;5030158;28;20427;-88
2021/04/12 01:27:01;;;;;;;8.68;7.85;;;;;;;;;;5030076;28;20370;-88
2021/04/12 01:29:46;;;;;;;9.43;8.27;;;;;;;;;;5030107;28;20880;-89
2021/04/12 01:32:12;;;;;;;9.18;8.27;;;;;;;;;;5030044;28;20393;-89
2021/04/12 01:34:56;;;;;;;9.50;8.32;;;;;;;;;;5031011;28;20373;-88
2021/04/12 01:37:25;;;;;;;10.15;8.45;;;;;;;;;;5029801;28;20416;-89
2021/04/12 01:39:59;;;;;;;9.57;8.20;;;;;;;;;;5031215;28;20373;-89
2021/04/12 01:42:31;;;;;;;10.03;9.03;;;;;;;;;;5030168;28;20466;-89
2021/04/12 01:45:03;;;;;;;10.32;9.27;;;;;;;;;;5030125;28;20804;-89
2021/04/12 01:47:29;;;;;;;11.00;9.85;;;;;;;;;;5030276;28;20416;-89
2021/04/12 01:50:11;;;;;;;10.18;9.18;;;;;;;;;;5030849;28;20420;-89
2021/04/12 01:52:52;;;;;;;10.27;9.23;;;;;;;;;;5030325;28;20404;-89
2021/04/12 01:55:24;;;;;;;11.48;10.27;;;;;;;;;;5030295;28;20453;-89
2021/04/12 01:57:50;;;;;;;11.13;9.82;;;;;;;;;;5030575;28;20867;-87
2021/04/12 02:00:16;;;;;;;11.07;9.77;;;;;;;;;;5031593;28;20379;-89
2021/04/12 02:02:53;;;;;;;11.70;10.60;;;;;;;;;;5033254;28;20924;-88
2021/04/12 02:05:28;;;;;;;11.98;10.77;;;;;;;;;;5033606;28;20791;-90
2021/04/12 02:08:03;;;;;;;11.82;10.63;;;;;;;;;;5033343;28;20377;-88
2021/04/12 02:10:38;;;;;;;11.50;10.35;;;;;;;;;;5033355;28;20483;-89
2021/04/12 02:13:10;;;;;;;11.38;10.18;;;;;;;;;;5033513;28;20393;-90
2021/04/12 02:15:51;;;;;;;11.82;10.63;;;;;;;;;;5033081;28;20373;-89
2021/04/12 02:18:40;;;;;;;13.15;11.10;;;;;;;;;;5033351;28;20374;-90
2021/04/12 02:21:25;;;;;;;12.32;10.90;;;;;;;;;;5032924;28;20365;-89
2021/04/12 02:23:51;;;;;;;12.85;11.57;;;;;;;;;;5032903;28;20453;-88
2021/04/12 02:26:24;;;;;;;13.32;11.85;;;;;;;;;;5033270;28;20464;-89
2021/04/12 02:28:56;;;;;;;14.90;12.05;;;;;;;;;;5034151;28;20365;-88
2021/04/12 02:31:40;;;;;;;12.80;11.50;;;;;;;;;;5033209;28;20393;-88
2021/04/12 02:34:14;;;;;;;13.35;11.90;;;;;;;;;;5033539;28;20389;-89
2021/04/12 02:37:03;;;;;;;13.70;12.32;;;;;;;;;;5033153;28;20697;-88
2021/04/12 02:39:58;;;;;;;12.77;11.48;;;;;;;;;;5033428;28;20377;-88
2021/04/12 02:42:43;;;;;;;15.13;12.33;;;;;;;;;;5031232;28;20879;-87
2021/04/12 02:45:22;;;;;;;12.30;11.10;;;;;;;;;;5032574;28;20365;-88
2021/04/12 02:47:48;;;;;;;12.30;11.05;;;;;;;;;;5032994;28;20827;-89
2021/04/12 02:50:23;;;;;;;12.48;10.90;;;;;;;;;;5034259;28;20385;-89
2021/04/12 02:53:01;;;;;;;10.67;9.60;;;;;;;;;;5033842;28;20498;-88
2021/04/12 02:55:41;;;;;;;11.77;9.93;;;;;;;;;;5032555;28;20366;-87
2021/04/12 02:58:24;;;;;;;10.48;8.88;;;;;;;;;;5032583;28;20401;-87
2021/04/12 03:00:56;;;;;;;12.48;9.07;;;;;;;;;;5032585;28;20503;-88
2021/04/12 03:03:22;;;;;;;11.57;8.68;;;;;;;;;;5033579;28;20372;-88
2021/04/12 03:05:58;;;;;;;11.68;9.07;;;;;;;;;;5033683;28;20362;-87
2021/04/12 03:08:42;;;;;;;10.15;8.40;;;;;;;;;;5032073;28;20476;-87
2021/04/12 03:11:27;;;;;;;12.57;9.30;;;;;;;;;;5032985;28;20713;-86
2021/04/12 03:14:11;;;;;;;10.23;9.00;;;;;;;;;;5031667;28;20409;-87
2021/04/12 03:16:56;;;;;;;10.98;9.05;;;;;;;;;;5033091;28;20465;-87
2021/04/12 03:19:28;;;;;;;10.27;9.02;;;;;;;;;;5032882;28;20361;-87
2021/04/12 03:22:03;;;;;;;9.90;8.90;;;;;;;;;;5031778;28;20420;-87
2021/04/12 03:24:31;;;;;;;9.68;8.68;;;;;;;;;;5033046;28;20369;-87
2021/04/12 03:27:15;;;;;;;9.17;7.77;;;;;;;;;;5031312;28;20401;-87
2021/04/12 03:29:47;;;;;;;9.32;8.23;;;;;;;;;;5031414;28;20467;-88
2021/04/12 03:32:16;;;;;;;8.25;7.45;;;;;;;;;;5031136;28;20903;-86
2021/04/12 03:35:00;;;;;;;7.82;6.82;;;;;;;;;;5031819;28;20378;-87
2021/04/12 03:37:32;;;;;;;8.40;7.47;;;;;;;;;;5033740;28;20368;-87
2021/04/12 03:40:17;;;;;;;8.27;7.17;;;;;;;;;;5033438;28;20432;-87
2021/04/12 03:42:45;;;;;;;9.50;7.13;;;;;;;;;;5033784;28;20373;-87
2021/04/12 03:45:14;;;;;;;8.52;7.00;;;;;;;;;;5033016;28;20431;-87
2021/04/12 03:47:50;;;;;;;8.43;7.47;;;;;;;;;;5031079;28;20381;-87
2021/04/12 03:50:28;;;;;;;8.70;6.80;;;;;;;;;;5032687;28;20373;-86
2021/04/12 03:53:13;;;;;;;8.00;6.70;;;;;;;;;;5031130;28;20840;-87
2021/04/12 03:55:42;;;;;;;8.15;6.80;;;;;;;;;;5030708;28;20440;-86
2021/04/12 03:58:20;;;;;;;9.20;6.90;;;;;;;;;;5030769;28;20821;-87
2021/04/12 04:00:46;;;;;;;7.00;6.30;;;;;;;;;;5032461;28;20424;-87
2021/04/12 04:03:15;;;;;;;8.10;6.32;;;;;;;;;;5031519;28;20392;-87
2021/04/12 04:05:50;;;;;;;8.32;6.80;;;;;;;;;;5031243;28;20736;-87
2021/04/12 04:08:16;;;;;;;8.25;6.60;;;;;;;;;;5031134;28;20452;-88
2021/04/12 04:11:02;;;;;;;7.13;6.32;;;;;;;;;;5033029;28;20976;-87
2021/04/12 04:13:35;;;;;;;8.73;6.35;;;;;;;;;;5032549;28;20397;-87
2021/04/12 04:16:23;;;;;;;7.65;6.38;;;;;;;;;;5031813;28;20427;-87
2021/04/12 04:18:55;;;;;;;9.02;6.20;;;;;;;;;;5030609;28;20370;-87
2021/04/12 04:21:28;;;;;;;9.32;6.38;;;;;;;;;;5034176;28;20443;-87
2021/04/12 04:23:54;;;;;;;8.07;5.95;;;;;;;;;;5032870;28;20465;-87
2021/04/12 04:26:29;;;;;;;8.07;6.70;;;;;;;;;;5034405;28;20459;-86
2021/04/12 04:28:58;;;;;;;8.02;6.15;;;;;;;;;;5032606;28;20490;-86
2021/04/12 04:31:25;;;;;;;10.55;6.40;;;;;;;;;;5032411;28;20385;-87
2021/04/12 04:33:51;;;;;;;7.45;5.40;;;;;;;;;;5032041;28;20440;-87
2021/04/12 04:36:22;;;;;;;7.38;5.40;;;;;;;;;;5031233;28;20405;-87
2021/04/12 04:39:05;;;;;;;7.60;5.80;;;;;;;;;;5030371;28;20508;-87
2021/04/12 04:41:37;;;;;;;8.02;5.43;;;;;;;;;;5032403;28;20373;-87
2021/04/12 04:44:15;;;;;;;5.83;4.83;;;;;;;;;;5031852;28;20717;-87
2021/04/12 04:46:50;;;;;;;6.30;4.78;;;;;;;;;;5030720;28;20385;-87
2021/04/12 04:49:25;;;;;;;6.03;4.43;;;;;;;;;;5030114;28;20883;-87
2021/04/12 04:52:17;;;;;;;4.40;4.00;;;;;;;;;;5030821;28;20370;-87
2021/04/12 04:55:02;;;;;;;6.47;4.32;;;;;;;;;;5030958;28;20409;-87
2021/04/12 04:57:42;;;;;;;6.75;4.40;;;;;;;;;;5030295;28;20365;-86
2021/04/12 05:00:07;;;;;;;6.82;4.28;;;;;;;;;;5031608;28;20362;-87
2021/04/12 05:02:37;;;;;;;4.70;4.18;;;;;;;;;;5030990;28;20380;-86
2021/04/12 05:05:23;;;;;;;6.33;4.17;;;;;;;;;;5030985;28;20428;-86
2021/04/12 05:08:07;;;;;;;5.88;4.00;;;;;;;;;;5032005;28;20388;-87
2021/04/12 05:10:36;;;;;;;6.93;4.05;;;;;;;;;;5030454;28;20374;-87
2021/04/12 05:13:11;;;;;;;4.78;3.80;;;;;;;;;;5032288;28;20413;-88
2021/04/12 05:15:40;;;;;;;5.95;4.40;;;;;;;;;;5032238;28;20369;-86
2021/04/12 05:18:06;;;;;;;5.35;4.13;;;;;;;;;;5029366;28;20378;-87
2021/04/12 05:20:41;;;;;;;6.68;4.55;;;;;;;;;;5031282;28;20385;-87
2021/04/12 05:23:23;;;;;;;5.20;4.03;;;;;;;;;;5030308;28;20471;-87
2021/04/12 05:26:13;;;;;;;5.55;3.90;;;;;;;;;;5032343;28;20400;-87
2021/04/12 05:29:08;;;;;;;6.03;4.15;;;;;;;;;;5031074;28;20369;-87
2021/04/12 05:31:37;;;;;;;6.65;4.30;;;;;;;;;;5026978;28;20459;-87
2021/04/12 05:34:22;;;;;;;5.07;4.05;;;;;;;;;;5031001;28;20412;-87
2021/04/12 05:36:54;;;;;;;5.97;4.00;;;;;;;;;;5032999;28;20441;-87
2021/04/12 05:39:38;;;;;;;7.30;4.32;;;;;;;;;;5034372;28;20403;-87
2021/04/12 05:42:10;;;;;;;4.47;3.67;;;;;;;;;;5034392;28;20368;-88
2021/04/12 05:44:37;;;;;;;6.67;3.57;;;;;;;;;;5036339;28;20374;-87
2021/04/12 05:47:06;;;;;;;7.03;3.93;;;;;;;;;;5035611;28;20381;-88
2021/04/12 05:49:35;;;;;;;6.15;3.55;;;;;;;;;;5034465;28;20397;-87
2021/04/12 05:52:20;;;;;;;6.47;3.78;;;;;;;;;;5034562;28;20378;-87
2021/04/12 05:55:05;;;;;;;8.63;4.80;;;;;;;;;;5034783;28;20877;-87
2021/04/12 05:57:48;;;;;;;4.45;3.50;;;;;;;;;;5035500;28;20369;-87
2021/04/12 06:00:20;;;;;;;5.97;3.22;;;;;;;;;;5034971;28;20376;-87
2021/04/12 06:02:52;;;;;;;4.60;3.00;;;;;;;;;;5034986;28;20393;-87
2021/04/12 06:05:28;;;;;;;4.78;3.00;;;;;;;;;;5035255;28;20468;-87
2021/04/12 06:08:09;;;;;;;5.57;2.90;;;;;;;;;;5034963;28;20374;-87
2021/04/12 06:10:41;;;;;;;4.68;2.90;;;;;;;;;;5034523;28;20419;-87
2021/04/12 06:13:25;;;;;;;5.90;2.73;;;;;;;;;;5035791;28;20466;-87
2021/04/12 06:15:51;;;;;;;5.03;2.90;;;;;;;;;;5036344;28;20370;-87
2021/04/12 06:18:36;;;;;;;5.33;2.67;;;;;;;;;;5035662;28;20457;-86
2021/04/12 06:21:08;;;;;;;4.35;2.67;;;;;;;;;;5034636;28;20373;-85
2021/04/12 06:23:53;;;;;;;5.65;2.72;;;;;;;;;;5034224;28;20476;-86
2021/04/12 06:26:38;;;;;;;5.13;2.88;;;;;;;;;;5033967;28;20382;-86
2021/04/12 06:29:07;;;;;;;5.82;2.90;;;;;;;;;;5033737;28;20377;-85
2021/04/12 06:31:51;;;;;;;5.65;2.53;;;;;;;;;;5033789;28;20461;-86
2021/04/12 06:34:33;;;;;;;6.15;2.58;;;;;;;;;;5035304;28;20396;-87
2021/04/12 06:36:59;;;;;;;4.37;2.30;;;;;;;;;;5035486;28;20529;-87
2021/04/12 06:39:33;;;;;;;7.60;2.83;;;;;;;;;;5035199;28;20831;-87
2021/04/12 06:42:18;;;;;;;6.07;2.30;;;;;;;;;;5033453;28;20852;-87
2021/04/12 06:44:47;;;;;;;5.47;2.22;;;;;;;;;;5034131;28;20412;-87
2021/04/12 06:47:32;;;;;;;7.50;2.30;;;;;;;;;;5033513;28;20369;-86
2021/04/12 06:50:09;;;;;;;4.32;2.10;;;;;;;;;;5033898;28;20843;-87
2021/04/12 06:52:50;;;;;;;7.63;2.70;;;;;;;;;;5034886;28;20883;-87
2021/04/12 06:55:19;;;;;;;6.60;1.95;;;;;;;;;;5032551;28;20365;-85
2021/04/12 06:58:04;;;;;;;5.53;2.30;;;;;;;;;;5031778;28;20373;-86
2021/04/12 07:00:53;;;;;;;4.70;2.92;;;;;;;;;;5032654;28;20424;-86
2021/04/12 07:03:19;;;;;;;6.80;2.80;;;;;;;;;;5032362;28;20381;-84
2021/04/12 07:06:04;;;;;;;5.07;3.10;;;;;;;;;;5032678;28;20739;-85
2021/04/12 07:08:33;;;;;;;6.30;3.53;;;;;;;;;;5027266;28;20377;-86
2021/04/12 07:11:11;;;;;;;6.30;3.60;;;;;;;;;;5031894;28;20369;-86
2021/04/12 07:13:40;;;;;;;7.55;3.63;;;;;;;;;;5029285;28;20401;-86
2021/04/12 07:16:06;;;;;;;6.45;3.78;;;;;;;;;;5032502;28;20729;-85
2021/04/12 07:18:52;;;;;;;5.75;3.40;;;;;;;;;;5031181;28;20445;-85
2021/04/12 07:21:45;;;;;;;8.15;3.85;;;;;;;;;;5032421;28;20369;-85
2021/04/12 07:24:30;;;;;;;6.95;3.58;;;;;;;;;;5031553;28;20468;-86
2021/04/12 07:27:15;;;;;;;6.43;3.63;;;;;;;;;;5032333;28;20357;-85
2021/04/12 07:29:59;;;;;;;7.07;4.00;;;;;;;;;;5032687;28;20369;-86
2021/04/12 07:32:34;;;;;;;6.55;3.38;;;;;;;;;;5026363;28;20916;-86
2021/04/12 07:35:19;;;;;;;6.63;3.33;;;;;;;;;;5030937;28;20384;-86
2021/04/12 07:37:51;;;;;;;6.20;3.30;;;;;;;;;;5021461;28;21527;-86
2021/04/12 07:40:36;;;;;;;6.63;3.20;;;;;;;;;;5017449;28;20383;-86
2021/04/12 07:43:20;;;;;;;7.07;3.15;;;;;;;;;;5010757;28;20773;-85
2021/04/12 07:45:53;;;;;;;8.38;3.30;;;;;;;;;;5030755;28;20494;-85
2021/04/12 07:48:22;;;;;;;7.18;3.10;;;;;;;;;;5017090;28;20495;-86
2021/04/12 07:51:07;;;;;;;6.20;2.80;;;;;;;;;;5023933;28;20384;-86
2021/04/12 07:53:33;;;;;;;5.97;3.38;;;;;;;;;;5022304;28;20480;-84
2021/04/12 07:56:05;;;;;;;6.15;3.15;;;;;;;;;;5020368;28;20409;-86
2021/04/12 07:58:51;;;;;;;5.70;3.28;;;;;;;;;;5034387;28;20384;-83
2021/04/12 08:01:41;;;;;;;5.47;3.00;;;;;;;;;;5011690;28;20391;-85
2021/04/12 08:04:25;;;;;;;6.65;3.53;;;;;;;;;;5030701;28;20393;-86
2021/04/12 08:06:54;;;;;;;8.00;3.20;;;;;;;;;;5032457;28;20823;-85
2021/04/12 08:09:38;;;;;;;5.38;2.90;;;;;;;;;;5031161;28;20386;-84
2021/04/12 08:12:26;;;;;;;7.50;3.25;;;;;;;;;;5012402;28;20374;-84
2021/04/12 08:14:55;;;;;;;7.15;3.30;;;;;;;;;;5025881;28;20400;-86
2021/04/12 08:17:27;;;;;;;7.63;3.30;;;;;;;;;;5028973;28;20397;-86
2021/04/12 08:20:02;;;;;;;7.07;2.78;;;;;;;;;;5028311;28;20419;-85
2021/04/12 08:22:35;;;;;;;7.38;3.05;;;;;;;;;;5022802;28;20375;-86
2021/04/12 08:25:20;;;;;;;5.22;3.08;;;;;;;;;;5030294;28;20392;-86
2021/04/12 08:27:55;;;;;;;8.88;2.78;;;;;;;;;;5014042;28;20395;-84
2021/04/12 08:30:40;;;;;;;6.97;2.95;;;;;;;;;;5022127;28;20762;-85
2021/04/12 08:33:25;;;;;;;5.70;3.00;;;;;;;;;;5028935;28;20397;-86
2021/04/12 08:35:51;;;;;;;5.78;2.97;;;;;;;;;;5027124;28;20373;-85
2021/04/12 08:38:37;;;;;;;6.30;2.88;;;;;;;;;;5024115;28;20883;-85
2021/04/12 08:41:27;;;;;;;4.50;2.50;;;;;;;;;;5026670;28;20890;-86
2021/04/12 08:44:12;;;;;;;7.95;2.67;;;;;;;;;;5029363;28;20373;-86
2021/04/12 08:46:43;;;;;;;5.45;2.78;;;;;;;;;;5031283;28;20871;-86
2021/04/12 08:49:15;;;;;;;8.20;2.85;;;;;;;;;;5029114;28;20916;-86
2021/04/12 08:51:46;;;;;;;6.05;2.90;;;;;;;;;;5029211;28;20369;-86
2021/04/12 08:54:31;;;;;;;7.18;2.63;;;;;;;;;;5028302;28;20447;-86
2021/04/12 08:57:16;;;;;;;8.30;3.17;;;;;;;;;;5029175;28;20396;-85
2021/04/12 09:00:00;;;;;;;5.57;2.53;;;;;;;;;;5030487;28;20369;-89
2021/04/12 09:02:45;;;;;;;5.63;2.58;;;;;;;;;;5029906;28;20381;-89
2021/04/12 09:05:32;;;;;;;4.73;2.50;;;;;;;;;;5029581;28;20420;-88
2021/04/12 09:08:03;;;;;;;7.30;2.47;;;;;;;;;;5029921;28;20843;-88
2021/04/12 09:10:42;;;;;;;6.45;2.30;;;;;;;;;;5030502;28;20393;-88
2021/04/12 09:13:20;;;;;;;6.05;2.20;;;;;;;;;;5031022;28;20389;-87
2021/04/12 09:16:02;;;;;;;5.25;2.30;;;;;;;;;;5029381;28;20369;-87
2021/04/12 09:18:31;;;;;;;6.80;2.10;;;;;;;;;;5029766;28;20369;-88
2021/04/12 09:21:20;;;;;;;6.10;2.35;;;;;;;;;;5029928;28;20382;-87
2021/04/12 09:24:10;;;;;;;4.35;2.00;;;;;;;;;;5012684;28;20818;-87
2021/04/12 09:26:50;;;;;;;6.18;2.50;;;;;;;;;;5031862;28;20369;-86
2021/04/12 09:29:32;;;;;;;5.07;2.10;;;;;;;;;;5028743;28;20456;-86
2021/04/12 09:32:16;;;;;;;5.88;2.17;;;;;;;;;;5028864;28;20366;-86
2021/04/12 09:34:49;;;;;;;8.00;2.30;;;;;;;;;;5027547;28;20393;-85
2021/04/12 09:37:27;;;;;;;4.78;2.20;;;;;;;;;;5026913;28;21020;-86
2021/04/12 09:40:12;;;;;;;3.72;1.80;;;;;;;;;;5026621;28;20374;-84
2021/04/12 09:42:44;;;;;;;7.00;2.05;;;;;;;;;;5027501;28;20369;-86
2021/04/12 09:45:29;;;;;;;5.13;1.97;;;;;;;;;;5026333;28;20451;-87
2021/04/12 09:48:04;;;;;;;5.18;2.10;;;;;;;;;;5026996;28;20373;-86
2021/04/12 09:50:51;;;;;;;3.90;2.00;;;;;;;;;;5028048;28;20376;-87
2021/04/12 09:53:22;;;;;;;6.45;1.90;;;;;;;;;;5029317;28;20469;-85
2021/04/12 09:55:51;;;;;;;3.47;2.00;;;;;;;;;;5029242;28;20377;-85
2021/04/12 09:58:36;;;;;;;4.53;2.17;;;;;;;;;;5027422;28;20790;-85
2021/04/12 10:01:13;;;;;;;5.03;1.60;;;;;;;;;;5028693;28;20366;-84
2021/04/12 10:04:05;;;;;;;4.78;2.03;;;;;;;;;;5027554;28;20385;-85
2021/04/12 10:06:40;;;;;;;7.40;2.38;;;;;;;;;;5029261;28;20729;-87
2021/04/12 10:09:15;;;;;;;5.72;1.80;;;;;;;;;;5028129;28;20420;-86
2021/04/12 10:11:47;;;;;;;3.67;1.73;;;;;;;;;;5029210;28;20480;-85
2021/04/12 10:14:27;;;;;;;7.13;2.00;;;;;;;;;;5027818;28;20397;-85
2021/04/12 10:16:59;;;;;;;5.00;2.20;;;;;;;;;;5026188;28;20462;-84
2021/04/12 10:19:29;;;;;;;5.00;1.70;;;;;;;;;;5027785;28;20836;-86
2021/04/12 10:21:55;;;;;;;4.10;2.00;;;;;;;;;;5028103;28;20377;-85
2021/04/12 10:24:40;;;;;;;7.33;1.80;;;;;;;;;;5041823;28;21612;-85
2021/04/12 10:27:10;;;;;;;4.63;2.10;;;;;;;;;;5033121;28;20811;-84
2021/04/12 10:29:43;;;;;;;6.20;1.80;;;;;;;;;;5026672;28;20378;-86
2021/04/12 10:32:12;;;;;;;4.13;1.90;;;;;;;;;;5032373;28;21424;-86
2021/04/12 10:35:01;;;;;;;6.25;2.17;;;;;;;;;;5032643;28;20428;-86
2021/04/12 10:37:46;;;;;;;6.22;1.92;;;;;;;;;;5017671;28;20515;-85
2021/04/12 10:40:22;;;;;;;5.50;1.80;;;;;;;;;;5031708;28;20369;-86
2021/04/12 10:43:08;;;;;;;4.47;1.90;;;;;;;;;;5032216;28;20982;-84
2021/04/12 10:46:04;;;;;;;4.67;1.90;;;;;;;;;;5024461;28;20418;-87
2021/04/12 10:48:45;;;;;;;3.70;1.70;;;;;;;;;;5011297;28;20387;-86
2021/04/12 10:51:23;;;;;;;4.60;1.63;;;;;;;;;;5030779;28;20464;-86
2021/04/12 10:53:52;;;;;;;4.22;1.40;;;;;;;;;;5028412;28;20443;-86
2021/04/12 10:56:37;;;;;;;4.17;1.70;;;;;;;;;;5038916;28;20440;-83
2021/04/12 10:59:11;;;;;;;5.75;2.03;;;;;;;;;;5027466;28;20373;-85
2021/04/12 11:01:41;;;;;;;5.68;1.58;;;;;;;;;;5032883;28;20397;-86
2021/04/12 11:04:13;;;;;;;2.83;1.35;;;;;;;;;;5032575;28;20452;-87
2021/04/12 11:07:00;;;;;;;3.75;1.42;;;;;;;;;;5030491;28;20374;-85
2021/04/12 11:09:26;;;;;;;4.70;1.60;;;;;;;;;;5031709;28;20386;-84
2021/04/12 11:12:03;;;;;;;3.40;1.60;;;;;;;;;;5033179;28;20377;-87
2021/04/12 11:14:34;;;;;;;4.80;1.80;;;;;;;;;;5032702;28;20389;-87
2021/04/12 11:17:02;;;;;;;6.55;2.00;;;;;;;;;;5032764;28;20369;-86
2021/04/12 11:19:31;;;;;;;6.55;1.90;;;;;;;;;;5032124;28;20400;-84
2021/04/12 11:22:00;;;;;;;5.43;1.60;;;;;;;;;;5033477;28;20381;-87
2021/04/12 11:24:44;;;;;;;4.20;1.30;;;;;;;;;;5031904;28;20373;-87
2021/04/12 11:27:29;;;;;;;4.60;1.50;;;;;;;;;;5033229;28;20464;-86
2021/04/12 11:30:08;;;;;;;4.43;1.60;;;;;;;;;;5031244;28;20369;-85
2021/04/12 11:32:43;;;;;;;3.40;1.40;;;;;;;;;;5030596;28;20903;-84
2021/04/12 11:35:14;;;;;;;6.50;1.50;;;;;;;;;;5031462;28;20362;-85
2021/04/12 11:37:59;;;;;;;6.05;1.60;;;;;;;;;;5030994;28;20361;-84
2021/04/12 11:40:29;;;;;;;4.00;1.50;;;;;;;;;;5031156;28;20844;-84
2021/04/12 11:42:57;;;;;;;4.93;1.50;;;;;;;;;;5032422;28;20385;-84
2021/04/12 11:45:34;;;;;;;4.45;1.52;;;;;;;;;;5033481;28;20365;-84
2021/04/12 11:48:09;;;;;;;5.65;1.98;;;;;;;;;;5033000;28;20365;-84
2021/04/12 11:50:46;;;;;;;3.40;1.13;;;;;;;;;;5031008;28;20427;-85
2021/04/12 11:53:15;;;;;;;3.83;1.37;;;;;;;;;;5032886;28;20396;-85
2021/04/12 11:55:53;;;;;;;4.32;1.67;;;;;;;;;;5032758;28;20366;-87
2021/04/12 11:58:27;;;;;;;6.35;1.92;;;;;;;;;;5034184;28;20369;-84
2021/04/12 12:00:56;;;;;;;6.93;1.95;;;;;;;;;;5034620;28;20840;-86
2021/04/12 12:03:32;;;;;;;4.38;1.40;;;;;;;;;;5034606;28;20373;-84
2021/04/12 12:06:01;;;;;;;3.60;1.40;;;;;;;;;;5035169;28;20377;-86
2021/04/12 12:08:48;;;;;;;4.88;2.20;;;;;;;;;;5033315;28;20362;-84
2021/04/12 12:11:21;;;;;;;5.35;1.52;;;;;;;;;;5000780;28;20417;-84
2021/04/12 12:13:59;;;;;;;5.40;1.60;;;;;;;;;;5031764;28;20436;-84
2021/04/12 12:16:36;;;;;;;4.13;1.67;;;;;;;;;;5031485;28;20369;-81
2021/04/12 12:19:13;;;;;;;5.40;2.35;;;;;;;;;;5030730;28;20365;-82
2021/04/12 12:21:46;;;;;;;6.10;3.10;;;;;;;;;;5031391;28;20465;-83
2021/04/12 12:24:15;;;;;;;5.15;1.75;;;;;;;;;;5031335;28;20395;-82
2021/04/12 12:26:50;;;;;;;4.60;1.95;;;;;;;;;;5026519;28;20942;-83
2021/04/12 12:29:28;;;;;;;4.32;1.60;;;;;;;;;;5030300;28;20452;-84
2021/04/12 12:31:57;;;;;;;2.03;1.35;;;;;;;;;;5030608;28;20401;-84
2021/04/12 12:34:38;;;;;;;3.30;1.55;;;;;;;;;;5030205;28;20396;-83
2021/04/12 12:37:12;;;;;;;4.60;1.73;;;;;;;;;;5026599;28;20382;-84
2021/04/12 12:40:07;;;;;;;6.30;1.70;;;;;;;;;;5029960;28;20452;-84
2021/04/12 12:42:37;;;;;;;6.30;1.60;;;;;;;;;;5025621;28;20393;-84
2021/04/12 12:45:09;;;;;;;4.22;1.52;;;;;;;;;;5029743;28;20806;-84
2021/04/12 12:47:36;;;;;;;4.43;1.38;;;;;;;;;;5030538;28;20367;-82
2021/04/12 12:50:05;;;;;;;2.77;1.50;;;;;;;;;;5030801;28;20366;-84
2021/04/12 12:52:32;;;;;;;4.18;1.60;;;;;;;;;;5030107;28;20858;-83
2021/04/12 12:55:00;;;;;;;4.05;1.75;;;;;;;;;;5030200;28;20372;-84
2021/04/12 12:57:33;;;;;;;4.35;1.65;;;;;;;;;;5029156;28;20366;-83
2021/04/12 13:00:17;;;;;;;4.75;1.65;;;;;;;;;;5029802;28;20423;-84
2021/04/12 13:02:44;;;;;;;3.75;1.60;;;;;;;;;;5027126;28;20369;-82
2021/04/12 13:05:19;;;;;;;4.72;1.67;;;;;;;;;;5033617;28;20381;-83
2021/04/12 13:07:48;;;;;;;4.35;1.60;;;;;;;;;;5028163;28;20373;-82
2021/04/12 13:10:26;;;;;;;6.13;1.77;;;;;;;;;;5021410;28;20400;-82
2021/04/12 13:12:55;;;;;;;5.75;2.03;;;;;;;;;;5021698;28;20404;-82
2021/04/12 13:15:21;;;;;;;5.75;1.70;;;;;;;;;;5025294;28;20385;-84
2021/04/12 13:17:47;;;;;;;4.80;1.50;;;;;;;;;;5025056;28;20373;-83
2021/04/12 13:20:19;;;;;;;3.47;1.60;;;;;;;;;;5028193;28;20378;-87
2021/04/12 13:22:48;;;;;;;5.37;1.63;;;;;;;;;;5032094;28;20377;-83
2021/04/12 13:25:14;;;;;;;7.43;2.00;;;;;;;;;;5029468;28;20377;-84
2021/04/12 13:27:40;;;;;;;5.13;1.73;;;;;;;;;;5028698;28;20720;-83
2021/04/12 13:30:09;;;;;;;3.83;1.35;;;;;;;;;;5029943;28;20697;-85
2021/04/12 13:32:41;;;;;;;3.67;1.38;;;;;;;;;;5027096;28;20397;-84
2021/04/12 13:35:07;;;;;;;2.75;1.50;;;;;;;;;;5030474;28;20380;-89
2021/04/12 13:37:43;;;;;;;3.10;1.35;;;;;;;;;;5030186;28;20470;-87
2021/04/12 13:40:29;;;;;;;3.35;1.23;;;;;;;;;;5032352;28;20369;-84
2021/04/12 13:43:04;;;;;;;4.40;1.30;;;;;;;;;;5030375;28;20373;-85
2021/04/12 13:45:34;;;;;;;3.33;1.38;;;;;;;;;;5030107;28;20388;-86
2021/04/12 13:48:07;;;;;;;3.05;1.40;;;;;;;;;;5031667;28;20724;-90
2021/04/12 13:50:47;;;;;;;4.22;1.40;;;;;;;;;;5029594;28;20404;-88
2021/04/12 13:53:26;;;;;;;3.70;1.40;;;;;;;;;;5027584;28;20425;-85
2021/04/12 13:56:04;;;;;;;4.25;1.52;;;;;;;;;;5025215;28;20424;-86
2021/04/12 13:58:36;;;;;;;5.70;1.58;;;;;;;;;;5027699;28;20378;-84
2021/04/12 14:01:07;;;;;;;6.03;1.60;;;;;;;;;;5039263;28;20369;-87
2021/04/12 14:03:39;;;;;;;3.85;1.50;;;;;;;;;;5040001;28;20915;-87
2021/04/12 14:06:05;;;;;;;3.80;1.40;;;;;;;;;;5031242;28;20373;-85
2021/04/12 14:08:34;;;;;;;4.97;1.60;;;;;;;;;;5033629;28;20377;-85
2021/04/12 14:11:02;;;;;;;4.60;1.58;;;;;;;;;;5033219;28;20941;-84
2021/04/12 14:13:28;;;;;;;4.50;1.50;;;;;;;;;;5030435;28;20411;-87
2021/04/12 14:16:13;;;;;;;4.55;1.60;;;;;;;;;;5032245;28;20385;-86
2021/04/12 14:18:44;;;;;;;4.40;1.50;;;;;;;;;;5030150;28;20875;-87
2021/04/12 14:21:13;;;;;;;5.95;1.70;;;;;;;;;;5035881;28;20404;-86
2021/04/12 14:23:44;;;;;;;6.88;1.95;;;;;;;;;;5035425;28;20386;-87
2021/04/12 14:26:13;;;;;;;3.65;1.52;;;;;;;;;;5033481;28;20372;-84
2021/04/12 14:28:42;;;;;;;4.90;1.40;;;;;;;;;;5039149;28;20381;-83
2021/04/12 14:31:29;;;;;;;2.95;1.40;;;;;;;;;;5040028;28;20377;-85
2021/04/12 14:34:04;;;;;;;5.20;1.60;;;;;;;;;;5031204;28;20447;-85
2021/04/12 14:36:33;;;;;;;3.13;1.50;;;;;;;;;;5032893;28;20427;-83
2021/04/12 14:39:08;;;;;;;4.03;1.40;;;;;;;;;;5031228;28;20856;-85
2021/04/12 14:41:37;;;;;;;6.00;1.60;;;;;;;;;;5033766;28;20369;-84
2021/04/12 14:44:09;;;;;;;4.90;1.70;;;;;;;;;;5033233;28;20378;-85
2021/04/12 14:46:46;;;;;;;4.65;1.60;;;;;;;;;;5033021;28;20401;-84
2021/04/12 14:49:13;;;;;;;4.88;1.70;;;;;;;;;;5031421;28;20394;-86
2021/04/12 14:51:49;;;;;;;6.18;1.58;;;;;;;;;;5034684;28;20424;-87
2021/04/12 14:54:36;;;;;;;3.58;1.60;;;;;;;;;;5034493;28;20415;-88
2021/04/12 14:57:05;;;;;;;5.95;1.85;;;;;;;;;;5032377;28;20444;-87
2021/04/12 14:59:45;;;;;;;4.25;1.55;;;;;;;;;;5033056;28;20457;-88
2021/04/12 15:02:27;;;;;;;3.83;1.50;;;;;;;;;;5032519;28;20745;-86
2021/04/12 15:04:57;;;;;;;6.47;2.10;;;;;;;;;;5033351;28;20381;-83
2021/04/12 15:07:23;;;;;;;4.38;2.45;;;;;;;;;;5035327;28;20369;-86
2021/04/12 15:09:53;;;;;;;7.50;2.17;;;;;;;;;;5033978;28;20427;-91
2021/04/12 15:12:21;;;;;;;4.30;1.50;;;;;;;;;;5033353;28;20373;-86
2021/04/12 15:15:08;;;;;;;4.53;1.85;;;;;;;;;;5029363;28;20787;-85
2021/04/12 15:17:36;;;;;;;5.93;1.90;;;;;;;;;;5033316;28;20866;-86
2021/04/12 15:20:13;;;;;;;4.55;1.50;;;;;;;;;;5033164;28;20380;-83
2021/04/12 15:22:56;;;;;;;4.68;1.55;;;;;;;;;;5032687;28;21315;-85
2021/04/12 15:25:45;;;;;;;6.22;1.60;;;;;;;;;;5032134;28;20450;-86
2021/04/12 15:28:19;;;;;;;6.05;1.90;;;;;;;;;;5031524;28;20431;-86
2021/04/12 15:30:55;;;;;;;5.60;1.40;;;;;;;;;;5031814;28;20381;-88